Time,TemperatureF,DewpointF,PressureIn,WindDirection,WindDirectionDegrees,WindSpeedMPH,WindSpeedGustMPH,Humidity,HourlyPrecipIn,Conditions,Clouds,dailyrainin,SolarRadiationWatts/m^2,SoftwareType,DateUTC
2013-07-16 12:01:00,77.0,52.0,-100.00,WSW,247,8.0,14.0,42,0.00,,,0.01,939.000000,,2013-07-16 18:01:00,
2013-07-16 12:11:00,77.0,52.0,-100.00,WSW,247,8.0,14.0,42,0.00,,,0.01,939.000000,,2013-07-16 18:11:00,
2013-07-16 12:22:00,77.0,52.0,-100.00,WSW,247,8.0,14.0,42,0.00,,,0.01,939.000000,,2013-07-16 18:22:00,
2013-07-16 12:32:00,77.0,52.0,-100.00,WSW,247,8.0,14.0,42,0.00,,,0.01,939.000000,,2013-07-16 18:32:00,
2013-07-16 13:01:00,79.0,53.0,-100.00,West,265,7.0,15.0,40,0.00,,,0.01,947.000000,,2013-07-16 19:01:00,
2013-07-16 13:11:00,79.0,53.0,-100.00,West,265,7.0,15.0,40,0.00,,,0.01,947.000000,,2013-07-16 19:11:00,
2013-07-16 13:22:00,79.0,53.0,-100.00,West,265,7.0,15.0,40,0.00,,,0.01,947.000000,,2013-07-16 19:22:00,
2013-07-16 13:32:00,79.0,53.0,-100.00,West,265,7.0,15.0,40,0.00,,,0.01,947.000000,,2013-07-16 19:32:00,
2013-07-16 13:52:00,81.0,53.0,-100.00,SW,236,8.0,17.0,38,0.00,,,0.01,973.000000,,2013-07-16 19:52:00,
2013-07-16 14:03:00,81.0,53.0,-100.00,SW,236,8.0,17.0,38,0.00,,,0.01,973.000000,,2013-07-16 20:03:00,
2013-07-16 14:11:00,81.0,53.0,-100.00,SW,236,8.0,17.0,38,0.00,,,0.01,973.000000,,2013-07-16 20:11:00,
2013-07-16 14:22:00,81.0,53.0,-100.00,SW,236,8.0,17.0,38,0.00,,,0.01,973.000000,,2013-07-16 20:22:00,
2013-07-16 14:32:00,81.0,53.0,-100.00,SW,236,8.0,17.0,38,0.00,,,0.01,973.000000,,2013-07-16 20:32:00,
2013-07-16 15:01:00,84.0,51.0,-100.00,West,279,6.0,15.0,32,0.00,,,0.01,1047.000000,,2013-07-16 21:01:00,
2013-07-16 15:11:00,84.0,51.0,-100.00,West,279,6.0,15.0,32,0.00,,,0.01,1047.000000,,2013-07-16 21:11:00,
2013-07-16 15:22:00,84.0,51.0,-100.00,West,279,6.0,15.0,32,0.00,,,0.01,1047.000000,,2013-07-16 21:22:00,
2013-07-16 15:32:00,84.0,51.0,-100.00,West,279,6.0,15.0,32,0.00,,,0.01,1047.000000,,2013-07-16 21:32:00,
2013-07-16 15:52:00,85.0,50.0,-100.00,SSW,212,7.0,17.0,30,0.00,,,0.01,876.000000,,2013-07-16 21:52:00,
2013-07-16 16:01:00,85.0,50.0,-100.00,SSW,212,7.0,17.0,30,0.00,,,0.01,876.000000,,2013-07-16 22:01:00,
2013-07-16 16:11:00,85.0,50.0,-100.00,SSW,212,7.0,17.0,30,0.00,,,0.01,876.000000,,2013-07-16 22:11:00,
2013-07-16 16:22:00,85.0,50.0,-100.00,SSW,212,7.0,17.0,30,0.00,,,0.01,876.000000,,2013-07-16 22:22:00,
2013-07-16 16:33:00,85.0,50.0,-100.00,SSW,212,7.0,17.0,30,0.00,,,0.01,876.000000,,2013-07-16 22:33:00,
2013-07-16 17:01:00,85.0,50.0,-100.00,West,275,10.0,19.0,30,0.00,,,0.01,890.000000,,2013-07-16 23:01:00,
2013-07-16 17:11:00,85.0,50.0,-100.00,West,275,10.0,19.0,30,0.00,,,0.01,890.000000,,2013-07-16 23:11:00,
2013-07-16 17:22:00,85.0,50.0,-100.00,West,275,10.0,19.0,30,0.00,,,0.01,890.000000,,2013-07-16 23:22:00,
2013-07-16 17:32:00,85.0,50.0,-100.00,West,275,10.0,19.0,30,0.00,,,0.01,890.000000,,2013-07-16 23:32:00,
2013-07-16 18:01:00,85.0,48.0,-100.00,West,262,10.0,19.0,28,0.00,,,0.01,702.000000,,2013-07-17 00:01:00,
2013-07-16 18:11:00,85.0,48.0,-100.00,West,262,10.0,19.0,28,0.00,,,0.01,702.000000,,2013-07-17 00:11:00,
2013-07-16 18:22:00,85.0,48.0,-100.00,West,262,10.0,19.0,28,0.00,,,0.01,702.000000,,2013-07-17 00:22:00,
2013-07-16 18:33:00,85.0,48.0,-100.00,West,262,10.0,19.0,28,0.00,,,0.01,702.000000,,2013-07-17 00:33:00,
2013-07-16 19:01:00,82.0,48.0,-100.00,WSW,253,9.0,16.0,31,0.00,,,0.01,293.000000,,2013-07-17 01:01:00,
2013-07-16 19:11:00,82.0,48.0,-100.00,WSW,253,9.0,16.0,31,0.00,,,0.01,293.000000,,2013-07-17 01:11:00,
2013-07-16 19:22:00,82.0,48.0,-100.00,WSW,253,9.0,16.0,31,0.00,,,0.01,293.000000,,2013-07-17 01:22:00,
2013-07-16 19:32:00,82.0,48.0,-100.00,WSW,253,9.0,16.0,31,0.00,,,0.01,293.000000,,2013-07-17 01:32:00,
2013-07-16 20:01:00,80.0,48.0,-100.00,West,266,9.0,18.0,33,0.00,,,0.01,132.000000,,2013-07-17 02:01:00,
2013-07-16 20:11:00,80.0,48.0,-100.00,West,266,9.0,18.0,33,0.00,,,0.01,132.000000,,2013-07-17 02:11:00,
2013-07-16 20:22:00,80.0,48.0,-100.00,West,266,9.0,18.0,33,0.00,,,0.01,132.000000,,2013-07-17 02:22:00,
2013-07-16 20:32:00,80.0,48.0,-100.00,West,266,9.0,18.0,33,0.00,,,0.01,132.000000,,2013-07-17 02:32:00,
2013-07-16 20:53:00,78.0,48.0,-100.00,West,261,9.0,20.0,35,0.00,,,0.01,56.000000,,2013-07-17 02:53:00,
2013-07-16 21:01:00,78.0,48.0,-100.00,West,261,9.0,20.0,35,0.00,,,0.01,56.000000,,2013-07-17 03:01:00,
2013-07-16 21:11:00,78.0,48.0,-100.00,West,261,9.0,20.0,35,0.00,,,0.01,56.000000,,2013-07-17 03:11:00,
2013-07-16 21:22:00,78.0,48.0,-100.00,West,261,9.0,20.0,35,0.00,,,0.01,56.000000,,2013-07-17 03:22:00,
2013-07-16 21:32:00,78.0,48.0,-100.00,West,261,9.0,20.0,35,0.00,,,0.01,56.000000,,2013-07-17 03:32:00,
2013-07-16 21:53:00,77.0,49.0,-100.00,WSW,255,7.0,13.0,37,-99.99,,,-99.99,0.000000,,2013-07-17 03:53:00,
2013-07-16 22:01:00,77.0,49.0,-100.00,WSW,255,7.0,13.0,37,-99.99,,,-99.99,0.000000,,2013-07-17 04:01:00,
2013-07-16 22:11:00,77.0,49.0,-100.00,WSW,255,7.0,13.0,37,-99.99,,,-99.99,0.000000,,2013-07-17 04:11:00,
2013-07-16 22:22:00,77.0,49.0,-100.00,WSW,255,7.0,13.0,37,-99.99,,,-99.99,0.000000,,2013-07-17 04:22:00,
2013-07-16 22:32:00,77.0,49.0,-100.00,WSW,255,7.0,13.0,37,-99.99,,,-99.99,0.000000,,2013-07-17 04:32:00,
2013-07-16 22:53:00,76.0,47.0,-100.00,SW,235,2.0,11.0,36,0.00,,,-99.99,0.000000,,2013-07-17 04:53:00,
2013-07-16 23:02:00,76.0,47.0,-100.00,SW,235,2.0,11.0,36,0.00,,,-99.99,0.000000,,2013-07-17 05:02:00,
2013-07-16 23:11:00,76.0,47.0,-100.00,SW,235,2.0,11.0,36,0.00,,,-99.99,0.000000,,2013-07-17 05:11:00,
2013-07-16 23:22:00,76.0,47.0,-100.00,SW,235,2.0,11.0,36,0.00,,,-99.99,0.000000,,2013-07-17 05:22:00,
2013-07-16 23:32:00,76.0,47.0,-100.00,SW,235,2.0,11.0,36,0.00,,,-99.99,0.000000,,2013-07-17 05:32:00,
2013-07-16 23:52:00,71.0,49.0,-100.00,South,178,7.0,19.0,46,0.00,,,-99.99,0.000000,,2013-07-17 05:52:00,